createdAt,value
2019-04-10T00:01:26.348Z,98819.20
2019-04-10T00:05:34.149Z,98823.59
2019-04-10T00:09:41.904Z,98831.27
2019-04-10T00:13:49.719Z,98837.86
2019-04-10T00:17:57.843Z,98840.28
2019-04-10T00:22:06.226Z,98850.70
2019-04-10T00:26:15.252Z,98853.84
2019-04-10T00:30:23.161Z,98856.70
2019-04-10T00:34:31.836Z,98864.02
2019-04-10T00:38:41.788Z,98860.17
2019-04-10T00:42:50.190Z,98859.02
2019-04-10T00:46:58.909Z,98861.73
2019-04-10T00:51:07.228Z,98861.36
2019-04-10T00:55:15.343Z,98860.47
2019-04-10T00:59:24.052Z,98862.11
2019-04-10T01:03:46.664Z,98868.00
2019-04-10T01:07:54.248Z,98869.26
2019-04-10T01:12:01.998Z,98875.89
2019-04-10T01:16:11.206Z,98868.53
2019-04-10T01:20:19.655Z,98859.69
2019-04-10T01:24:28.453Z,98862.36
2019-04-10T01:28:36.776Z,98857.84
2019-04-10T01:32:44.440Z,98859.39
2019-04-10T01:36:54.607Z,98850.94
2019-04-10T01:41:03.829Z,98861.88
2019-04-10T01:45:11.690Z,98851.58
2019-04-10T01:49:19.677Z,98860.72
2019-04-10T01:53:28.046Z,98866.68
2019-04-10T01:57:36.643Z,98865.55
2019-04-10T02:01:52.509Z,98860.17
2019-04-10T02:06:01.041Z,98860.02
2019-04-10T02:10:10.115Z,98852.36
2019-04-10T02:14:18.390Z,98849.30
2019-04-10T02:18:26.287Z,98847.00
2019-04-10T02:22:34.227Z,98851.17
2019-04-10T02:26:43.407Z,98860.89
2019-04-10T02:30:51.922Z,98869.98
2019-04-10T02:35:01.104Z,98876.64
2019-04-10T02:39:20.713Z,98877.45
2019-04-10T02:43:18.997Z,98872.13
2019-04-10T02:47:26.735Z,98875.27
2019-04-10T02:51:36.039Z,98886.96
2019-04-10T02:55:44.206Z,98891.72
2019-04-10T02:59:53.671Z,98887.72
2019-04-10T03:04:03.315Z,98886.28
2019-04-10T03:08:13.022Z,98884.58
2019-04-10T03:12:21.890Z,98884.91
2019-04-10T03:16:29.940Z,98886.23
2019-04-10T03:20:38.524Z,98879.94
2019-04-10T03:24:46.550Z,98884.73
2019-04-10T03:28:55.613Z,98881.76
2019-04-10T03:33:14.293Z,98889.53
2019-04-10T03:37:20.275Z,98899.47
2019-04-10T03:41:28.644Z,98904.64
2019-04-10T03:45:36.931Z,98906.99
2019-04-10T03:49:44.824Z,98903.84
2019-04-10T03:53:52.520Z,98906.50
2019-04-10T03:58:00.963Z,98909.69
2019-04-10T04:02:09.060Z,98913.00
2019-04-10T04:06:17.989Z,98923.80
2019-04-10T04:10:26.731Z,98932.75
2019-04-10T04:14:34.858Z,98934.08
2019-04-10T04:18:43.520Z,98934.06
2019-04-10T04:22:52.835Z,98937.55
2019-04-10T04:27:01.226Z,98939.03
2019-04-10T04:31:09.480Z,98940.05
2019-04-10T04:35:17.628Z,98949.20
2019-04-10T04:39:28.142Z,98963.45
2019-04-10T04:43:34.839Z,98971.45
2019-04-10T04:47:43.322Z,98966.83
2019-04-10T04:51:51.300Z,98968.48
2019-04-10T04:56:01.732Z,98974.36
2019-04-10T05:00:10.223Z,98980.92
2019-04-10T05:04:17.997Z,98985.98
2019-04-10T05:08:28.117Z,98995.31
2019-04-10T05:12:36.161Z,98990.47
2019-04-10T05:16:43.885Z,98993.08
2019-04-10T05:20:52.625Z,98993.06
2019-04-10T05:25:00.970Z,98998.23
2019-04-10T05:29:08.991Z,99002.19
2019-04-10T05:33:16.969Z,99000.53
2019-04-10T05:37:24.673Z,99013.09
2019-04-10T05:41:33.498Z,99010.97
2019-04-10T05:45:42.200Z,99016.05
2019-04-10T05:49:50.159Z,99014.59
2019-04-10T05:53:58.267Z,99013.34
2019-04-10T05:58:07.133Z,99010.05
2019-04-10T06:02:15.895Z,99008.13
2019-04-10T06:06:24.252Z,99010.27
2019-04-10T06:10:32.389Z,98994.59
2019-04-10T06:14:40.107Z,98995.89
2019-04-10T06:18:48.224Z,98991.96
2019-04-10T06:22:56.168Z,98991.39
2019-04-10T06:27:04.464Z,98999.38
2019-04-10T06:31:12.865Z,99002.43
2019-04-10T06:35:21.866Z,99004.73
2019-04-10T06:39:30.967Z,99009.29
2019-04-10T06:43:39.283Z,99016.78
2019-04-10T06:47:46.985Z,99032.33
2019-04-10T06:51:55.597Z,99028.80
2019-04-10T06:56:04.879Z,99035.41
2019-04-10T07:00:16.533Z,99026.80
2019-04-10T07:04:25.312Z,99020.30
2019-04-10T07:08:34.358Z,99009.33
2019-04-10T07:12:43.878Z,99009.66
2019-04-10T07:16:52.716Z,99011.80
2019-04-10T07:21:01.980Z,99027.86
2019-04-10T07:25:12.689Z,99029.91
2019-04-10T07:29:24.746Z,99039.29
2019-04-10T07:33:30.904Z,99040.14
2019-04-10T07:37:38.711Z,99048.78
2019-04-10T07:41:47.338Z,99056.14
2019-04-10T07:45:56.833Z,99047.75
2019-04-10T07:50:08.153Z,99056.06
2019-04-10T07:54:18.334Z,99061.90
2019-04-10T07:58:24.718Z,99066.22
2019-04-10T08:02:32.524Z,99069.30
2019-04-10T08:06:42.313Z,99064.20
2019-04-10T08:10:50.951Z,99080.07
2019-04-10T08:14:58.950Z,99077.13
2019-04-10T08:19:08.177Z,99077.64
2019-04-10T08:23:16.182Z,99080.27
2019-04-10T08:27:25.546Z,99082.05
2019-04-10T08:31:33.368Z,99087.53
2019-04-10T08:35:42.487Z,99095.51
2019-04-10T08:39:51.390Z,99094.64
2019-04-10T08:43:59.860Z,99093.22
2019-04-10T08:48:08.040Z,99100.88
2019-04-10T08:52:16.702Z,99101.08
2019-04-10T08:56:25.003Z,99097.91
2019-04-10T09:00:34.319Z,99104.56
2019-04-10T09:04:42.162Z,99100.50
2019-04-10T09:08:50.964Z,99101.05
2019-04-10T09:12:59.945Z,99105.38
2019-04-10T09:17:08.993Z,99090.23
2019-04-10T09:21:17.463Z,99086.94
2019-04-10T09:25:25.228Z,99081.51
2019-04-10T09:29:33.194Z,99081.91
2019-04-10T09:33:41.079Z,99064.37
2019-04-10T09:37:49.062Z,99064.37
2019-04-10T09:41:56.766Z,99060.09
2019-04-10T09:46:06.492Z,99060.09
2019-04-10T09:50:15.133Z,99075.11
2019-04-10T09:54:23.987Z,99078.75
2019-04-10T09:58:32.517Z,99072.05
2019-04-10T10:02:40.530Z,99072.52
2019-04-10T10:06:49.375Z,99074.25
2019-04-10T10:10:57.638Z,99070.98
2019-04-10T10:15:07.252Z,99075.44
2019-04-10T10:19:16.083Z,99083.17
2019-04-10T10:23:23.893Z,99082.41
2019-04-10T10:27:32.225Z,99081.48
2019-04-10T10:31:40.617Z,99079.88
2019-04-10T10:35:49.506Z,99081.02
2019-04-10T10:39:57.484Z,99072.41
2019-04-10T10:44:05.238Z,99082.05
2019-04-10T10:48:13.692Z,99090.80
2019-04-10T10:52:23.674Z,99092.06
2019-04-10T10:56:31.571Z,99102.95
2019-04-10T11:00:39.298Z,99103.94
2019-04-10T11:04:47.525Z,99105.20
2019-04-10T11:08:55.715Z,99105.05
2019-04-10T11:13:03.451Z,99109.78
2019-04-10T11:17:12.001Z,99115.59
2019-04-10T11:21:20.711Z,99114.84
2019-04-10T11:25:30.205Z,99114.53
2019-04-10T11:29:38.996Z,99116.06
2019-04-10T11:33:51.374Z,99110.58
2019-04-10T11:37:59.576Z,99109.61
2019-04-10T11:42:09.913Z,99101.36
2019-04-10T11:46:17.993Z,99101.42
2019-04-10T11:50:28.129Z,99098.88
2019-04-10T11:54:40.964Z,99096.72
2019-04-10T11:58:53.791Z,99096.29
2019-04-10T12:02:58.740Z,99082.66
2019-04-10T12:07:06.025Z,99082.66
2019-04-10T12:11:18.553Z,99094.41
2019-04-10T12:15:23.971Z,99090.94
2019-04-10T12:19:32.130Z,99095.38
2019-04-10T12:23:40.949Z,99096.78
2019-04-10T12:27:49.436Z,99086.87
2019-04-10T12:31:57.326Z,99095.83
2019-04-10T12:36:06.841Z,99090.45
2019-04-10T12:40:15.206Z,99092.09
2019-04-10T12:44:23.542Z,99090.12
2019-04-10T12:48:31.300Z,99092.28
2019-04-10T12:52:39.347Z,99081.18
2019-04-10T12:56:47.191Z,99076.50
2019-04-10T13:00:56.306Z,99079.34
2019-04-10T13:05:05.762Z,99081.13
2019-04-10T13:09:14.478Z,98969.47
2019-04-10T13:13:22.800Z,99082.77
2019-04-10T13:17:33.197Z,99080.33
2019-04-10T13:21:42.436Z,99070.17
2019-04-10T13:25:58.121Z,99063.37
2019-04-10T13:30:00.692Z,99069.71
2019-04-10T13:34:09.049Z,99073.35
2019-04-10T13:38:24.855Z,99074.51
2019-04-10T13:42:27.295Z,99075.10
2019-04-10T13:46:35.349Z,99078.24
2019-04-10T13:50:44.224Z,99074.62
2019-04-10T13:54:52.647Z,99076.58
2019-04-10T13:59:00.615Z,99076.04
2019-04-10T14:03:08.822Z,99080.91
2019-04-10T14:07:17.926Z,99083.75
2019-04-10T14:11:26.866Z,99076.76
2019-04-10T14:15:35.897Z,99078.53
2019-04-10T14:19:44.352Z,99087.73
2019-04-10T14:23:52.002Z,99089.05
2019-04-10T14:28:00.574Z,99088.17
2019-04-10T14:32:11.375Z,99090.75
2019-04-10T14:36:20.837Z,99095.94
2019-04-10T14:40:29.158Z,99097.67
2019-04-10T14:44:37.061Z,99104.95
2019-04-10T14:48:44.819Z,99109.59
2019-04-10T14:52:53.704Z,99111.25
2019-04-10T14:57:02.352Z,99111.96
2019-04-10T15:01:11.528Z,99116.45
2019-04-10T15:05:19.306Z,99120.59
2019-04-10T15:09:27.726Z,99125.58
2019-04-10T15:13:36.162Z,99127.80
2019-04-10T15:17:45.158Z,99127.60
2019-04-10T15:21:54.025Z,99124.79
2019-04-10T15:26:02.078Z,99130.38
2019-04-10T15:30:11.236Z,99133.14
2019-04-10T15:34:20.485Z,99134.47
2019-04-10T15:38:28.475Z,99138.41
2019-04-10T15:42:37.416Z,99139.30
2019-04-10T15:46:46.236Z,99146.74
2019-04-10T15:50:54.171Z,99145.36
2019-04-10T15:55:02.006Z,99147.58
2019-04-10T15:59:12.164Z,99149.63
2019-04-10T16:03:20.049Z,99159.42
2019-04-10T16:07:28.878Z,99160.20
2019-04-10T16:11:54.248Z,99156.55
2019-04-10T16:16:25.527Z,99158.09
2019-04-10T16:20:35.013Z,99153.06
2019-04-10T16:24:43.003Z,99158.12
2019-04-10T16:28:51.568Z,99159.98
2019-04-10T16:33:00.824Z,99160.83
2019-04-10T16:37:10.420Z,99168.88
2019-04-10T16:41:19.424Z,99170.20
2019-04-10T16:45:28.444Z,99169.72
2019-04-10T16:49:37.168Z,99167.56
2019-04-10T16:53:45.509Z,99171.98
2019-04-10T16:57:53.565Z,99177.63
2019-04-10T17:02:01.874Z,99180.02
2019-04-10T17:06:10.259Z,99185.59
2019-04-10T17:10:23.043Z,99187.58
2019-04-10T17:14:29.335Z,99189.11
2019-04-10T17:18:37.483Z,99191.56
2019-04-10T17:22:49.200Z,99194.70
2019-04-10T17:26:55.742Z,99193.91
2019-04-10T17:31:07.367Z,99199.79
2019-04-10T17:35:15.831Z,99203.28
2019-04-10T17:39:25.042Z,99200.68
2019-04-10T17:43:33.325Z,99202.27
2019-04-10T17:47:41.424Z,99213.43
2019-04-10T17:51:50.300Z,99209.13
2019-04-10T17:55:58.320Z,99213.39
2019-04-10T18:00:11.184Z,99222.94
2019-04-10T18:04:20.061Z,99219.11
2019-04-10T18:08:30.104Z,99227.59
2019-04-10T18:12:38.386Z,99231.13
2019-04-10T18:16:46.417Z,99232.61
2019-04-10T18:20:54.507Z,99232.46
2019-04-10T18:25:03.389Z,99243.45
2019-04-10T18:29:11.669Z,99241.78
2019-04-10T18:33:20.418Z,99238.60
2019-04-10T18:37:30.048Z,99242.29
2019-04-10T18:41:40.226Z,99251.25
2019-04-10T18:45:57.465Z,99252.70
2019-04-10T18:49:58.164Z,99256.91
2019-04-10T18:54:06.395Z,99256.25
2019-04-10T18:58:17.358Z,99256.88
2019-04-10T19:02:49.746Z,99261.14
2019-04-10T19:06:59.331Z,99268.02
2019-04-10T19:11:17.565Z,99264.20
2019-04-10T19:15:17.051Z,99259.03
2019-04-10T19:19:25.968Z,99264.32
2019-04-10T19:23:34.032Z,99270.80
2019-04-10T19:27:44.392Z,99268.63
2019-04-10T19:31:56.209Z,99271.56
2019-04-10T19:36:07.800Z,99271.50
2019-04-10T19:40:15.981Z,99266.95
2019-04-10T19:44:23.879Z,99270.91
2019-04-10T19:48:33.686Z,99274.63
2019-04-10T19:52:41.514Z,99273.39
2019-04-10T19:56:49.204Z,99274.70
2019-04-10T20:00:57.317Z,99277.39
2019-04-10T20:05:05.664Z,99272.22
2019-04-10T20:09:14.466Z,99272.52
2019-04-10T20:13:22.732Z,99279.50
2019-04-10T20:17:31.016Z,99280.44
2019-04-10T20:21:39.742Z,99285.16
2019-04-10T20:25:48.449Z,99281.05
2019-04-10T20:29:56.722Z,99288.72
2019-04-10T20:34:05.416Z,99282.44
2019-04-10T20:38:13.504Z,99281.53
2019-04-10T20:42:22.323Z,99286.03
2019-04-10T20:46:30.819Z,99282.13
2019-04-10T20:50:39.481Z,99285.45
2019-04-10T20:54:47.462Z,99285.19
2019-04-10T20:58:55.159Z,99285.66
2019-04-10T21:03:02.895Z,99292.37
2019-04-10T21:07:10.999Z,99291.94
2019-04-10T21:11:18.729Z,99285.26
2019-04-10T21:15:27.573Z,99288.62
2019-04-10T21:19:35.686Z,99295.52
2019-04-10T21:23:44.261Z,99295.55
2019-04-10T21:27:54.673Z,99301.02
2019-04-10T21:32:10.600Z,99300.87
2019-04-10T21:36:18.552Z,99305.89
2019-04-10T21:40:27.182Z,99303.05
2019-04-10T21:44:35.221Z,99305.00
2019-04-10T21:48:43.342Z,99305.52
2019-04-10T21:52:51.981Z,99313.92
2019-04-10T21:56:59.868Z,99311.03
2019-04-10T22:01:11.778Z,99310.98
2019-04-10T22:05:19.831Z,99312.02
2019-04-10T22:09:55.735Z,99310.64
2019-04-10T22:14:04.516Z,99303.11
2019-04-10T22:18:12.833Z,99303.68
2019-04-10T22:22:20.725Z,99302.69
2019-04-10T22:26:29.755Z,99302.55
2019-04-10T22:30:37.775Z,99307.98
2019-04-10T22:34:46.416Z,99304.86
2019-04-10T22:38:54.224Z,99300.59
2019-04-10T22:43:03.277Z,99313.06
2019-04-10T22:47:11.566Z,99306.57
2019-04-10T22:51:19.380Z,99296.43
2019-04-10T22:55:28.135Z,99297.27
2019-04-10T22:59:36.217Z,99296.04
2019-04-10T23:03:45.317Z,99290.53
2019-04-10T23:07:55.574Z,99281.45
2019-04-10T23:12:03.627Z,99283.95
2019-04-10T23:16:15.408Z,99281.43
2019-04-10T23:20:22.021Z,99272.75
2019-04-10T23:24:29.898Z,99274.66
2019-04-10T23:28:38.167Z,99279.54
2019-04-10T23:32:46.183Z,99286.99
2019-04-10T23:36:54.115Z,99284.30
2019-04-10T23:41:02.104Z,99282.47
2019-04-10T23:45:13.517Z,99282.95
2019-04-10T23:49:21.548Z,99281.16
2019-04-10T23:53:29.316Z,99280.34
2019-04-10T23:57:37.746Z,99270.30
